KMWM

Windom Municipal Airport

Windom, Minnesota, USA
METAR KMWM 162355Z AUTO 01005KT 7SM M01/M08 A2998 RMK AO2 TSNO
Observed Flight Rules
Dec-16 @ 23:55 UTC (24 minutes ago)
Wind Visibility
10° at 5 knots 7 miles
Temperatures Readings
Current -1°C / 30°F
Dewpoint -8°C / 18°F
Humidity 59%
Altimeter 29.98" Hg
Pressure 1015 hPa
Elevation 430
METAR KMWM 162355Z AUTO 01005KT 7SM M01/M08 A2998 RMK AO2 TSNO
Observed Flight Rules
Dec-16 @ 23:55 UTC
(24 minutes ago)
Wind Visibility
10° at 5 knots 7 miles
Temperature Dewpoint
-1°C / 30°F -8°C / 18°F
Humidity Altimeter Pressure
59% 29.98" Hg 1015 hPa